Blue Ridge Observed Data For Previous 48 Hours

Caption
Day and Hour Reservoir Elevation (behind dam)* Tailwater Elevation (below dam)* Average Hourly Discharge*
9/14/2019 2 AM EDT 1,678.59 1,540.79 155
9/14/2019 3 AM EDT 1,678.61 1,540.79 155
9/14/2019 4 AM EDT 1,678.58 1,540.80 155
9/14/2019 5 AM EDT 1,678.62 1,540.79 155
9/14/2019 6 AM EDT 1,678.62 1,540.80 155
9/14/2019 7 AM EDT 1,678.59 1,540.80 155
9/14/2019 8 AM EDT 1,678.62 1,540.80 155
9/14/2019 9 AM EDT 1,678.63 1,540.80 155
9/14/2019 10 AM EDT 1,678.61 1,540.77 174
9/14/2019 11 AM EDT 1,678.58 1,543.63 1,745
9/14/2019 12 PM EDT 1,678.46 1,543.73 1,751
9/14/2019 1 PM EDT 1,678.47 1,543.72 1,742
9/14/2019 2 PM EDT 1,678.45 1,540.97 219
9/14/2019 3 PM EDT 1,678.43 1,540.80 155
9/14/2019 4 PM EDT 1,678.43 1,540.76 172
9/14/2019 5 PM EDT 1,678.36 1,543.60 1,744
9/14/2019 6 PM EDT 1,678.33 1,543.75 1,763
9/14/2019 7 PM EDT 1,678.28 1,543.74 1,759
9/14/2019 8 PM EDT 1,678.26 1,540.97 218
9/14/2019 9 PM EDT 1,678.36 1,540.80 155
9/14/2019 10 PM EDT 1,678.38 1,540.80 155
9/14/2019 11 PM EDT 1,678.38 1,540.79 155
9/15/2019 12 AM EDT 1,678.34 1,540.79 155
9/15/2019 1 AM EDT 1,678.32 1,540.79 155
9/15/2019 2 AM EDT 1,678.31 1,540.79 155
9/15/2019 3 AM EDT 1,678.36 1,540.80 155
9/15/2019 4 AM EDT 1,678.36 1,540.80 155
9/15/2019 5 AM EDT 1,678.41 1,540.80 155
9/15/2019 6 AM EDT 1,678.41 1,540.80 155
9/15/2019 7 AM EDT 1,678.41 1,540.80 155
9/15/2019 8 AM EDT 1,678.37 1,540.79 155
9/15/2019 9 AM EDT 1,678.40 1,540.79 155
9/15/2019 10 AM EDT 1,678.39 1,540.77 166
9/15/2019 11 AM EDT 1,678.35 1,543.62 1,729
9/15/2019 12 PM EDT 1,678.27 1,543.74 1,754
9/15/2019 1 PM EDT 1,678.24 1,543.72 1,756
9/15/2019 2 PM EDT 1,678.24 1,540.97 220
9/15/2019 3 PM EDT 1,678.26 1,540.80 155
9/15/2019 4 PM EDT 1,678.21 1,540.77 172
9/15/2019 5 PM EDT 1,678.19 1,543.63 1,773
9/15/2019 6 PM EDT 1,678.19 1,543.73 1,758
9/15/2019 7 PM EDT 1,678.14 1,543.75 1,749
9/15/2019 8 PM EDT 1,678.13 1,540.97 215
9/15/2019 9 PM EDT 1,678.15 1,540.80 155
9/15/2019 10 PM EDT 1,678.10 1,540.79 155
9/15/2019 11 PM EDT 1,678.14 1,540.79 155
9/16/2019 12 AM EDT 1,678.17 1,540.79 155
9/16/2019 1 AM EDT 1,678.18 1,540.80 155
9/16/2019 2 AM EDT 1,678.18 1,540.79 155
9/16/2019 3 AM EDT 1,678.16 1,540.79 155
9/16/2019 4 AM EDT 1,678.17 1,540.79 155
9/16/2019 5 AM EDT 1,678.19 1,540.80 155
9/16/2019 6 AM EDT 1,678.19 1,540.80 155
9/16/2019 7 AM EDT 1,678.17 1,540.80 155
9/16/2019 8 AM EDT 1,678.20 1,540.80 155
9/16/2019 9 AM EDT 1,678.20 1,540.80 155
9/16/2019 10 AM EDT 1,678.18 1,540.77 164
9/16/2019 11 AM EDT 1,678.14 1,543.62 1,742
9/16/2019 12 PM EDT 1,678.06 1,543.74 1,741
9/16/2019 1 PM EDT 1,678.01 1,543.73 1,740
9/16/2019 2 PM EDT 1,677.99 1,540.97 219
9/16/2019 3 PM EDT 1,677.99 1,540.80 155
9/16/2019 4 PM EDT 1,677.99 1,540.76 171
9/16/2019 5 PM EDT 1,677.96 1,543.61 1,756
9/16/2019 6 PM EDT 1,677.93 1,543.73 1,757

Elevations are in feet above sea level. Discharges are in cubic feet per second and are reported at the end of the hour.